Edward Brusco — WDC3064 — position and weather

sailwx.info

Track history (hours):
 
Tides and Currents Weather Stations Pressure Air Temp Water Temp Dewpoint Dewpoint Depression Visibility Wind Speed Wind Dir Waves Ship Positions

Edward Brusco

Owner: Brusco Tug & Barge, Inc., Longview, WA. More information available from US FCC via Universal Licensing System and Coast Guard Vessel Documentation Center.

Last reported at 2017-Oct-19 23:28 UTC. Time now 2017-Oct-19 23:36 UTC.
Position N 46°12' W 123°23'.

Length 37 m; draft 10.6 m.

Type: Tow > 200 m length. MMSI: 367002170.

Date/timePositionNaut miles runAvg speedWind from/ knotsBaromVisibWave heightAir tempDewpointWater temp
2017-Oct-19 23:28N 46°12' W 123°23'0 0.0
2017-Oct-19 22:58N 46°12' W 123°23'0 0.0
2017-Oct-19 22:27N 46°12' W 123°23'0 0.0
2017-Oct-19 21:57N 46°12' W 123°23'0 0.0
2017-Oct-19 21:30N 46°12' W 123°23'0 0.0
2017-Oct-19 21:00N 46°12' W 123°23'0 0.0
2017-Oct-19 20:25N 46°12' W 123°23'0 0.0
2017-Oct-19 19:55N 46°12' W 123°23'0 0.0
2017-Oct-19 19:28N 46°12' W 123°23'0 0.0
2017-Oct-19 18:58N 46°12' W 123°23'0 0.0
2017-Oct-19 18:28N 46°12' W 123°23'0 0.0
2017-Oct-19 17:58N 46°12' W 123°23'0 0.0
2017-Oct-19 17:29N 46°12' W 123°23'0 0.0
2017-Oct-19 16:59N 46°12' W 123°23'0 0.0
2017-Oct-19 16:28N 46°12' W 123°23'0 0.0
2017-Oct-19 15:58N 46°12' W 123°23'0 0.0
2017-Oct-19 15:28N 46°12' W 123°23'0 0.0
2017-Oct-19 14:53N 46°12' W 123°23'0 0.0
2017-Oct-19 14:29N 46°12' W 123°23'0 0.0
2017-Oct-19 13:50N 46°12' W 123°23'0 0.0
2017-Oct-19 13:26N 46°12' W 123°23'0 0.0
2017-Oct-19 12:59N 46°12' W 123°23'0 0.0
2017-Oct-19 12:26N 46°12' W 123°23'0 0.0
2017-Oct-19 11:59N 46°12' W 123°23'0 0.0
2017-Oct-19 11:29N 46°12' W 123°23'0 0.0
2017-Oct-19 10:59N 46°12' W 123°23'0 0.0
2017-Oct-19 10:29N 46°12' W 123°23'0 0.0
2017-Oct-19 09:57N 46°12' W 123°23'0 0.0
2017-Oct-19 09:30N 46°12' W 123°23'0 0.0
2017-Oct-19 09:00N 46°12' W 123°23'0 0.0
2017-Oct-19 08:29N 46°12' W 123°23'0 0.0
2017-Oct-19 07:59N 46°12' W 123°23'0 0.0
2017-Oct-19 07:29N 46°12' W 123°23'0 0.0
2017-Oct-19 07:00N 46°12' W 123°23'0 0.0
2017-Oct-19 06:27N 46°12' W 123°23'0 0.0
2017-Oct-19 06:00N 46°12' W 123°23'0 0.0
2017-Oct-19 05:30N 46°12' W 123°23'0 0.0
2017-Oct-19 04:51N 46°12' W 123°23'0 0.0
2017-Oct-19 04:27N 46°12' W 123°23'0 0.0
2017-Oct-19 03:59N 46°12' W 123°23'0 0.0
2017-Oct-19 03:29N 46°12' W 123°23'0 0.0
2017-Oct-19 02:58N 46°12' W 123°23'0 0.0
2017-Oct-19 02:28N 46°12' W 123°23'0 0.0
2017-Oct-19 01:52N 46°12' W 123°23'0 0.0
2017-Oct-19 01:28N 46°12' W 123°23'0 0.0
2017-Oct-19 00:55N 46°12' W 123°23'0 0.0
2017-Oct-19 00:28N 46°12' W 123°23'0 0.0
2017-Oct-19 00:00N 46°12' W 123°23'0 0.0
2017-Oct-18 23:31N 46°12' W 123°23'0 0.0
2017-Oct-18 22:59N 46°12' W 123°23'0 0.0
2017-Oct-18 22:29N 46°12' W 123°23'0 0.0
2017-Oct-18 21:56N 46°12' W 123°23'0 0.0
2017-Oct-18 21:26N 46°12' W 123°23'0 0.0
2017-Oct-18 20:59N 46°12' W 123°23'0 0.0
2017-Oct-18 20:28N 46°12' W 123°23'0 0.1
2017-Oct-18 20:01N 46°12' W 123°23'1 2.8
2017-Oct-18 19:31N 46°13' W 123°25'3 5.9
2017-Oct-18 19:00N 46°10' W 123°24'0 0.2
2017-Oct-18 18:31N 46°10' W 123°24'2 4.3
2017-Oct-18 18:00N 46°12' W 123°26'4 7.9
2017-Oct-18 17:30N 46°16' W 123°27'4 7.7
2017-Oct-18 17:01N 46°15' W 123°33'4 8.5
2017-Oct-18 16:30N 46°16' W 123°39'5 8.4
2017-Oct-18 15:52N 46°13' W 123°46'4 8.2
2017-Oct-18 15:26N 46°12' W 123°51'3 7.6
2017-Oct-18 15:01N 46°11' W 123°55'6 6.1
2017-Oct-18 14:00N 46°15' W 124°02'3 5.4
2017-Oct-18 13:31N 46°15' W 124°06'5 6.1
2017-Oct-18 12:45N 46°14' W 124°12'2 6.4
2017-Oct-18 12:30N 46°15' W 124°13'3 6.6
2017-Oct-18 12:00N 46°18' W 124°14'3 6.8
2017-Oct-18 11:31N 46°22' W 124°14'4 7.0
2017-Oct-18 11:00N 46°25' W 124°14'4 7.1
2017-Oct-18 10:30N 46°29' W 124°15'4 7.0
2017-Oct-18 10:00N 46°32' W 124°16'4 7.3
2017-Oct-18 09:30N 46°36' W 124°17'5 7.3
2017-Oct-18 08:48N 46°41' W 124°18'4 7.6
2017-Oct-18 08:18N 46°45' W 124°18'2 7.5
2017-Oct-18 08:00N 46°47' W 124°18'3 6.4
2017-Oct-18 07:30N 46°50' W 124°18'3 6.3
2017-Oct-18 07:00N 46°52' W 124°15'3 6.0
2017-Oct-18 06:30N 46°54' W 124°12'13 0.5
2017-Oct-17 06:38N 46°58' W 123°53'1 5.5
2017-Oct-17 06:27N 46°58' W 123°55'3 5.0
2017-Oct-17 05:47N 46°57' W 123°59'1 5.2
2017-Oct-17 05:31N 46°56' W 124°01'3 5.4
2017-Oct-17 04:59N 46°55' W 124°05'3 5.9
2017-Oct-17 04:30N 46°55' W 124°09'3 6.4
2017-Oct-17 04:00N 46°54' W 124°13'3 7.0
2017-Oct-17 03:31N 46°51' W 124°17'3 5.9
2017-Oct-17 03:00N 46°49' W 124°19'3 6.5
2017-Oct-17 02:30N 46°45' W 124°18'3 6.4
2017-Oct-17 02:00N 46°42' W 124°18'3 6.2
2017-Oct-17 01:30N 46°39' W 124°17'3 6.3
2017-Oct-17 01:01N 46°36' W 124°17'3 6.4
2017-Oct-17 00:31N 46°33' W 124°16'4 7.1
2017-Oct-17 00:00N 46°29' W 124°15'5 9.3
2017-Oct-16 23:31N 46°25' W 124°14'5 9.1
2017-Oct-16 23:00N 46°20' W 124°13'5 9.0
2017-Oct-16 22:31N 46°16' W 124°13'4 7.4
2017-Oct-16 22:01N 46°13' W 124°09'510.4
2017-Oct-16 21:31N 46°16' W 124°03'611.4
2017-Oct-16 21:01N 46°12' W 123°56'510.6
2017-Oct-16 20:31N 46°12' W 123°48'510.1
2017-Oct-16 20:00N 46°15' W 123°42'4 9.1
2017-Oct-16 19:30N 46°15' W 123°36'4 8.9
2017-Oct-16 19:00N 46°16' W 123°29'4 8.2
2017-Oct-16 18:30N 46°13' W 123°26'3 6.7
2017-Oct-16 18:00N 46°10' W 123°24'0 0.0
2017-Oct-16 17:19N 46°10' W 123°24'3 8.8
2017-Oct-16 17:01N 46°12' W 123°26'2 3.0
2017-Oct-16 16:28N 46°12' W 123°23'0 0.0
2017-Oct-16 15:51N 46°12' W 123°23'0 0.0
2017-Oct-16 15:30N 46°12' W 123°23'0 0.0
2017-Oct-16 15:00N 46°12' W 123°23'0 0.0
2017-Oct-16 14:22N 46°12' W 123°23'0 0.0
2017-Oct-16 13:29N 46°12' W 123°23'0 0.0
2017-Oct-16 12:58N 46°12' W 123°23'0 0.0
2017-Oct-16 12:25N 46°12' W 123°23'0 0.0
2017-Oct-16 11:58N 46°12' W 123°23'0 0.0
2017-Oct-16 11:28N 46°12' W 123°23'0 0.0
2017-Oct-16 10:59N 46°12' W 123°23'0 0.0
2017-Oct-16 10:26N 46°12' W 123°23'0 0.0
2017-Oct-16 09:58N 46°12' W 123°23'0 0.0
2017-Oct-16 09:28N 46°12' W 123°23'0 0.0
2017-Oct-16 08:55N 46°12' W 123°23'0 0.0
2017-Oct-16 08:28N 46°12' W 123°23'0 0.0
2017-Oct-16 07:58N 46°12' W 123°23'0 0.0
2017-Oct-16 07:22N 46°12' W 123°23'0 0.0
2017-Oct-16 06:58N 46°12' W 123°23'0 0.0
2017-Oct-16 06:28N 46°12' W 123°23'0 0.0
2017-Oct-16 05:58N 46°12' W 123°23'0 0.0
2017-Oct-16 05:28N 46°12' W 123°23'0 0.0
2017-Oct-16 04:58N 46°12' W 123°23'0 0.0
2017-Oct-16 04:19N 46°12' W 123°23'0 0.0
2017-Oct-16 03:58N 46°12' W 123°23'0 0.0
2017-Oct-16 03:28N 46°12' W 123°23'0 0.0
2017-Oct-16 02:58N 46°12' W 123°23'0 0.0
2017-Oct-16 02:28N 46°12' W 123°23'0 0.0
2017-Oct-16 01:59N 46°12' W 123°23'0 0.0
2017-Oct-16 01:25N 46°12' W 123°23'0 0.0
2017-Oct-16 00:58N 46°12' W 123°23'0 0.0
2017-Oct-16 00:27N 46°12' W 123°23'0 0.0
2017-Oct-16 00:00N 46°12' W 123°23'0 0.0
2017-Oct-15 23:28N 46°12' W 123°23'0 0.0
2017-Oct-15 22:55N 46°12' W 123°23'0 0.0
2017-Oct-15 22:25N 46°12' W 123°23'0 0.0
2017-Oct-15 21:58N 46°12' W 123°23'0 0.0
2017-Oct-15 21:28N 46°12' W 123°23'0 0.0
2017-Oct-15 20:59N 46°12' W 123°23'0 0.0
2017-Oct-15 20:29N 46°12' W 123°23'0 0.0
2017-Oct-15 19:56N 46°12' W 123°23'0 0.0
2017-Oct-15 19:23N 46°12' W 123°23'0 0.0
2017-Oct-15 18:59N 46°12' W 123°23'0 0.0
2017-Oct-15 18:29N 46°12' W 123°23'0 0.0
2017-Oct-15 17:59N 46°12' W 123°23'0 0.0
2017-Oct-15 17:28N 46°12' W 123°23'0 0.0
2017-Oct-15 17:00N 46°12' W 123°23'0 0.0
2017-Oct-15 16:30N 46°12' W 123°23'0 0.0
2017-Oct-15 15:59N 46°12' W 123°23'0 0.0
2017-Oct-15 15:28N 46°12' W 123°23'0 0.0
2017-Oct-15 14:46N 46°12' W 123°23'0 0.0
2017-Oct-15 13:52N 46°12' W 123°23'0 0.0
2017-Oct-15 13:30N 46°12' W 123°23'0 0.0
2017-Oct-15 12:58N 46°12' W 123°23'0 0.0
2017-Oct-15 12:28N 46°12' W 123°23'0 0.0
2017-Oct-15 11:58N 46°12' W 123°23'0 0.0
2017-Oct-15 11:25N 46°12' W 123°23'0 0.0
2017-Oct-15 10:58N 46°12' W 123°23'0 0.0
2017-Oct-15 10:27N 46°12' W 123°23'0 0.0
2017-Oct-15 10:00N 46°12' W 123°23'0 0.0
2017-Oct-15 09:24N 46°12' W 123°23'0 0.0
2017-Oct-15 08:55N 46°12' W 123°23'0 0.0
2017-Oct-15 08:30N 46°12' W 123°23'0 0.0
2017-Oct-15 08:00N 46°12' W 123°23'0 0.0
2017-Oct-15 07:30N 46°12' W 123°23'0 0.0
2017-Oct-15 06:55N 46°12' W 123°23'0 0.0
2017-Oct-15 06:27N 46°12' W 123°23'0 0.0
2017-Oct-15 05:57N 46°12' W 123°23'0 0.0
2017-Oct-15 05:28N 46°12' W 123°23'2 3.8
2017-Oct-15 05:00N 46°12' W 123°26'510.7
2017-Oct-15 04:31N 46°09' W 123°20'713.0
2017-Oct-15 04:00N 46°11' W 123°11'713.0
2017-Oct-15 03:30N 46°09' W 123°02'3 6.4
2017-Oct-15 03:01N 46°07' W 122°58'1 1.3
2017-Oct-15 02:30N 46°07' W 122°59'6 7.0
2017-Oct-15 01:40N 46°11' W 123°06'2 7.2
2017-Oct-15 01:20N 46°11' W 123°09'2 7.3
2017-Oct-15 01:00N 46°10' W 123°13'3 7.0
2017-Oct-15 00:31N 46°09' W 123°17'4 7.4
2017-Oct-15 00:00N 46°09' W 123°22'3 7.0
2017-Oct-14 23:30N 46°11' W 123°26'4 7.1
2017-Oct-14 22:53N 46°16' W 123°27'3 7.0
2017-Oct-14 22:30N 46°16' W 123°31'4 7.5
2017-Oct-14 22:01N 46°15' W 123°36'4 7.3
2017-Oct-14 21:30N 46°15' W 123°42'4 7.5
2017-Oct-14 21:01N 46°13' W 123°46'4 7.0
2017-Oct-14 20:30N 46°12' W 123°51'3 6.4
2017-Oct-14 20:01N 46°12' W 123°56'3 6.9
2017-Oct-14 19:31N 46°14' W 123°59'2 4.8
2017-Oct-14 19:00N 46°15' W 124°02'3 6.6
2017-Oct-14 18:31N 46°14' W 124°07'4 7.0
2017-Oct-14 18:00N 46°11' W 124°10'4 8.5
2017-Oct-14 17:30N 46°07' W 124°10'4 8.4
2017-Oct-14 17:00N 46°03' W 124°09'4 8.5
2017-Oct-14 16:31N 45°59' W 124°08'4 8.5
2017-Oct-14 16:01N 45°54' W 124°08'714.1
2017-Oct-14 15:30N 45°47' W 124°06'1 2.9
2017-Oct-14 15:00N 45°46' W 124°05'4 8.6
2017-Oct-14 14:31N 45°42' W 124°04'4 8.5
2017-Oct-14 14:00N 45°37' W 124°03'4 8.7
2017-Oct-14 13:30N 45°33' W 124°04'4 8.7
2017-Oct-14 13:00N 45°29' W 124°05'4 8.8
2017-Oct-14 12:30N 45°24' W 124°05'4 8.5
2017-Oct-14 12:01N 45°20' W 124°05'5 8.7
2017-Oct-14 11:29N 45°16' W 124°06'4 0.1
2017-Oct-12 16:44N 45°20' W 124°06'1 6.6
2017-Oct-12 16:30N 45°21' W 124°06'3 6.4
2017-Oct-12 16:00N 45°24' W 124°05'3 6.5
2017-Oct-12 15:30N 45°28' W 124°05'3 6.6
2017-Oct-12 15:00N 45°31' W 124°05'3 6.7
2017-Oct-12 14:31N 45°34' W 124°05'4 6.6
2017-Oct-12 13:52N 45°38' W 124°05'2 6.3
2017-Oct-12 13:30N 45°41' W 124°05'3 5.9
2017-Oct-12 12:55N 45°44' W 124°06'2 6.0
2017-Oct-12 12:31N 45°47' W 124°06'4 6.0
2017-Oct-12 11:53N 45°50' W 124°07'2 5.8
2017-Oct-12 11:31N 45°52' W 124°07'3 5.8
2017-Oct-12 10:57N 45°56' W 124°08'3 5.7
2017-Oct-12 10:31N 45°58' W 124°08'4 5.4
2017-Oct-12 09:51N 46°02' W 124°09'2 5.5
2017-Oct-12 09:30N 46°04' W 124°09'3 5.6
2017-Oct-12 08:56N 46°07' W 124°10'2 5.8
2017-Oct-12 08:30N 46°09' W 124°10'5 5.8
2017-Oct-12 07:44N 46°13' W 124°08'1 6.0
2017-Oct-12 07:30N 46°14' W 124°06'3 6.2
2017-Oct-12 07:00N 46°16' W 124°02'4 8.9
2017-Oct-12 06:30N 46°13' W 123°57'510.1
2017-Oct-12 06:01N 46°12' W 123°50'5 9.2
2017-Oct-12 05:26N 46°14' W 123°43'4 8.7
2017-Oct-12 05:01N 46°16' W 123°38'510.3
2017-Oct-12 04:30N 46°16' W 123°31'5 9.0
2017-Oct-12 04:00N 46°13' W 123°26'5 9.5
2017-Oct-12 03:31N 46°09' W 123°23'5 9.7
2017-Oct-12 03:01N 46°09' W 123°16'5 9.3
2017-Oct-12 02:31N 46°11' W 123°10'5 9.2
2017-Oct-12 02:01N 46°10' W 123°04'5 9.8
2017-Oct-12 01:30N 46°07' W 122°58'2 4.5
2017-Oct-12 01:00N 46°05' W 122°56'714.4
2017-Oct-12 00:31N 46°10' W 123°04'4 5.5
2017-Oct-11 23:50N 46°11' W 123°09'412.3
2017-Oct-11 23:31N 46°10' W 123°14'612.1
2017-Oct-11 23:01N 46°09' W 123°23'2 2.6
2017-Oct-11 22:19N 46°10' W 123°25'2 6.2
2017-Oct-11 21:58N 46°12' W 123°26'3 7.4
2017-Oct-11 21:30N 46°15' W 123°27'4 7.1
2017-Oct-11 21:01N 46°16' W 123°32'4 7.9
2017-Oct-11 20:31N 46°16' W 123°38'4 7.8
2017-Oct-11 20:01N 46°14' W 123°43'4 7.7
2017-Oct-11 19:31N 46°12' W 123°48'4 7.3
2017-Oct-11 19:00N 46°11' W 123°53'3 6.3
2017-Oct-11 18:31N 46°13' W 123°57'3 6.4
2017-Oct-11 18:01N 46°15' W 124°01'2 3.9
2017-Oct-11 17:30N 46°15' W 124°03'2 4.9
2017-Oct-11 17:01N 46°14' W 124°07'41 1.1
2017-Oct-10 03:40N 46°55' W 124°08'1 7.0
2017-Oct-10 03:30N 46°55' W 124°09'4 7.2
2017-Oct-10 02:56N 46°53' W 124°14'4 8.4
2017-Oct-10 02:30N 46°50' W 124°18'4 8.2
2017-Oct-10 02:00N 46°46' W 124°18'7 8.6
2017-Oct-10 01:11N 46°39' W 124°17'1 8.5
2017-Oct-10 01:00N 46°37' W 124°17'4 8.4
2017-Oct-10 00:31N 46°33' W 124°16'4 8.5
2017-Oct-10 00:01N 46°29' W 124°15'4 8.6
2017-Oct-09 23:31N 46°25' W 124°15'  
Track history (hours):
 
Tides and Currents Weather Stations Pressure Air Temp Water Temp Dewpoint Dewpoint Depression Visibility Wind Speed Wind Dir Waves Ship Positions

Edward Brusco

Owner: Brusco Tug & Barge, Inc., Longview, WA. More information available from US FCC via Universal Licensing System and Coast Guard Vessel Documentation Center.

Last reported at 2017-Oct-19 23:28 UTC. Time now 2017-Oct-19 23:36 UTC.
Position N 46°12' W 123°23'.

Length 37 m; draft 10.6 m.

Type: Tow > 200 m length. MMSI: 367002170.

Date/timePositionNaut miles runAvg speedWind from/ knotsBaromVisibWave heightAir tempDewpointWater temp
2017-Oct-19 23:28N 46°12' W 123°23'0 0.0
2017-Oct-19 22:58N 46°12' W 123°23'0 0.0
2017-Oct-19 22:27N 46°12' W 123°23'0 0.0
2017-Oct-19 21:57N 46°12' W 123°23'0 0.0
2017-Oct-19 21:30N 46°12' W 123°23'0 0.0
2017-Oct-19 21:00N 46°12' W 123°23'0 0.0
2017-Oct-19 20:25N 46°12' W 123°23'0 0.0
2017-Oct-19 19:55N 46°12' W 123°23'0 0.0
2017-Oct-19 19:28N 46°12' W 123°23'0 0.0
2017-Oct-19 18:58N 46°12' W 123°23'0 0.0
2017-Oct-19 18:28N 46°12' W 123°23'0 0.0
2017-Oct-19 17:58N 46°12' W 123°23'0 0.0
2017-Oct-19 17:29N 46°12' W 123°23'0 0.0
2017-Oct-19 16:59N 46°12' W 123°23'0 0.0
2017-Oct-19 16:28N 46°12' W 123°23'0 0.0
2017-Oct-19 15:58N 46°12' W 123°23'0 0.0
2017-Oct-19 15:28N 46°12' W 123°23'0 0.0
2017-Oct-19 14:53N 46°12' W 123°23'0 0.0
2017-Oct-19 14:29N 46°12' W 123°23'0 0.0
2017-Oct-19 13:50N 46°12' W 123°23'0 0.0
2017-Oct-19 13:26N 46°12' W 123°23'0 0.0
2017-Oct-19 12:59N 46°12' W 123°23'0 0.0
2017-Oct-19 12:26N 46°12' W 123°23'0 0.0
2017-Oct-19 11:59N 46°12' W 123°23'0 0.0
2017-Oct-19 11:29N 46°12' W 123°23'0 0.0
2017-Oct-19 10:59N 46°12' W 123°23'0 0.0
2017-Oct-19 10:29N 46°12' W 123°23'0 0.0
2017-Oct-19 09:57N 46°12' W 123°23'0 0.0
2017-Oct-19 09:30N 46°12' W 123°23'0 0.0
2017-Oct-19 09:00N 46°12' W 123°23'0 0.0
2017-Oct-19 08:29N 46°12' W 123°23'0 0.0
2017-Oct-19 07:59N 46°12' W 123°23'0 0.0
2017-Oct-19 07:29N 46°12' W 123°23'0 0.0
2017-Oct-19 07:00N 46°12' W 123°23'0 0.0
2017-Oct-19 06:27N 46°12' W 123°23'0 0.0
2017-Oct-19 06:00N 46°12' W 123°23'0 0.0
2017-Oct-19 05:30N 46°12' W 123°23'0 0.0
2017-Oct-19 04:51N 46°12' W 123°23'0 0.0
2017-Oct-19 04:27N 46°12' W 123°23'0 0.0
2017-Oct-19 03:59N 46°12' W 123°23'0 0.0
2017-Oct-19 03:29N 46°12' W 123°23'0 0.0
2017-Oct-19 02:58N 46°12' W 123°23'0 0.0
2017-Oct-19 02:28N 46°12' W 123°23'0 0.0
2017-Oct-19 01:52N 46°12' W 123°23'0 0.0
2017-Oct-19 01:28N 46°12' W 123°23'0 0.0
2017-Oct-19 00:55N 46°12' W 123°23'0 0.0
2017-Oct-19 00:28N 46°12' W 123°23'0 0.0
2017-Oct-19 00:00N 46°12' W 123°23'0 0.0
2017-Oct-18 23:31N 46°12' W 123°23'0 0.0
2017-Oct-18 22:59N 46°12' W 123°23'0 0.0
2017-Oct-18 22:29N 46°12' W 123°23'0 0.0
2017-Oct-18 21:56N 46°12' W 123°23'0 0.0
2017-Oct-18 21:26N 46°12' W 123°23'0 0.0
2017-Oct-18 20:59N 46°12' W 123°23'0 0.0
2017-Oct-18 20:28N 46°12' W 123°23'0 0.1
2017-Oct-18 20:01N 46°12' W 123°23'1 2.8
2017-Oct-18 19:31N 46°13' W 123°25'3 5.9
2017-Oct-18 19:00N 46°10' W 123°24'0 0.2
2017-Oct-18 18:31N 46°10' W 123°24'2 4.3
2017-Oct-18 18:00N 46°12' W 123°26'4 7.9
2017-Oct-18 17:30N 46°16' W 123°27'4 7.7
2017-Oct-18 17:01N 46°15' W 123°33'4 8.5
2017-Oct-18 16:30N 46°16' W 123°39'5 8.4
2017-Oct-18 15:52N 46°13' W 123°46'4 8.2
2017-Oct-18 15:26N 46°12' W 123°51'3 7.6
2017-Oct-18 15:01N 46°11' W 123°55'6 6.1
2017-Oct-18 14:00N 46°15' W 124°02'3 5.4
2017-Oct-18 13:31N 46°15' W 124°06'5 6.1
2017-Oct-18 12:45N 46°14' W 124°12'2 6.4
2017-Oct-18 12:30N 46°15' W 124°13'3 6.6
2017-Oct-18 12:00N 46°18' W 124°14'3 6.8
2017-Oct-18 11:31N 46°22' W 124°14'4 7.0
2017-Oct-18 11:00N 46°25' W 124°14'4 7.1
2017-Oct-18 10:30N 46°29' W 124°15'4 7.0
2017-Oct-18 10:00N 46°32' W 124°16'4 7.3
2017-Oct-18 09:30N 46°36' W 124°17'5 7.3
2017-Oct-18 08:48N 46°41' W 124°18'4 7.6
2017-Oct-18 08:18N 46°45' W 124°18'2 7.5
2017-Oct-18 08:00N 46°47' W 124°18'3 6.4
2017-Oct-18 07:30N 46°50' W 124°18'3 6.3
2017-Oct-18 07:00N 46°52' W 124°15'3 6.0
2017-Oct-18 06:30N 46°54' W 124°12'13 0.5
2017-Oct-17 06:38N 46°58' W 123°53'1 5.5
2017-Oct-17 06:27N 46°58' W 123°55'3 5.0
2017-Oct-17 05:47N 46°57' W 123°59'1 5.2
2017-Oct-17 05:31N 46°56' W 124°01'3 5.4
2017-Oct-17 04:59N 46°55' W 124°05'3 5.9
2017-Oct-17 04:30N 46°55' W 124°09'3 6.4
2017-Oct-17 04:00N 46°54' W 124°13'3 7.0
2017-Oct-17 03:31N 46°51' W 124°17'3 5.9
2017-Oct-17 03:00N 46°49' W 124°19'3 6.5
2017-Oct-17 02:30N 46°45' W 124°18'3 6.4
2017-Oct-17 02:00N 46°42' W 124°18'3 6.2
2017-Oct-17 01:30N 46°39' W 124°17'3 6.3
2017-Oct-17 01:01N 46°36' W 124°17'3 6.4
2017-Oct-17 00:31N 46°33' W 124°16'4 7.1
2017-Oct-17 00:00N 46°29' W 124°15'5 9.3
2017-Oct-16 23:31N 46°25' W 124°14'5 9.1
2017-Oct-16 23:00N 46°20' W 124°13'5 9.0
2017-Oct-16 22:31N 46°16' W 124°13'4 7.4
2017-Oct-16 22:01N 46°13' W 124°09'510.4
2017-Oct-16 21:31N 46°16' W 124°03'611.4
2017-Oct-16 21:01N 46°12' W 123°56'510.6
2017-Oct-16 20:31N 46°12' W 123°48'510.1
2017-Oct-16 20:00N 46°15' W 123°42'4 9.1
2017-Oct-16 19:30N 46°15' W 123°36'4 8.9
2017-Oct-16 19:00N 46°16' W 123°29'4 8.2
2017-Oct-16 18:30N 46°13' W 123°26'3 6.7
2017-Oct-16 18:00N 46°10' W 123°24'0 0.0
2017-Oct-16 17:19N 46°10' W 123°24'3 8.8
2017-Oct-16 17:01N 46°12' W 123°26'2 3.0
2017-Oct-16 16:28N 46°12' W 123°23'0 0.0
2017-Oct-16 15:51N 46°12' W 123°23'0 0.0
2017-Oct-16 15:30N 46°12' W 123°23'0 0.0
2017-Oct-16 15:00N 46°12' W 123°23'0 0.0
2017-Oct-16 14:22N 46°12' W 123°23'0 0.0
2017-Oct-16 13:29N 46°12' W 123°23'0 0.0
2017-Oct-16 12:58N 46°12' W 123°23'0 0.0
2017-Oct-16 12:25N 46°12' W 123°23'0 0.0
2017-Oct-16 11:58N 46°12' W 123°23'0 0.0
2017-Oct-16 11:28N 46°12' W 123°23'0 0.0
2017-Oct-16 10:59N 46°12' W 123°23'0 0.0
2017-Oct-16 10:26N 46°12' W 123°23'0 0.0
2017-Oct-16 09:58N 46°12' W 123°23'0 0.0
2017-Oct-16 09:28N 46°12' W 123°23'0 0.0
2017-Oct-16 08:55N 46°12' W 123°23'0 0.0
2017-Oct-16 08:28N 46°12' W 123°23'0 0.0
2017-Oct-16 07:58N 46°12' W 123°23'0 0.0
2017-Oct-16 07:22N 46°12' W 123°23'0 0.0
2017-Oct-16 06:58N 46°12' W 123°23'0 0.0
2017-Oct-16 06:28N 46°12' W 123°23'0 0.0
2017-Oct-16 05:58N 46°12' W 123°23'0 0.0
2017-Oct-16 05:28N 46°12' W 123°23'0 0.0
2017-Oct-16 04:58N 46°12' W 123°23'0 0.0
2017-Oct-16 04:19N 46°12' W 123°23'0 0.0
2017-Oct-16 03:58N 46°12' W 123°23'0 0.0
2017-Oct-16 03:28N 46°12' W 123°23'0 0.0
2017-Oct-16 02:58N 46°12' W 123°23'0 0.0
2017-Oct-16 02:28N 46°12' W 123°23'0 0.0
2017-Oct-16 01:59N 46°12' W 123°23'0 0.0
2017-Oct-16 01:25N 46°12' W 123°23'0 0.0
2017-Oct-16 00:58N 46°12' W 123°23'0 0.0
2017-Oct-16 00:27N 46°12' W 123°23'0 0.0
2017-Oct-16 00:00N 46°12' W 123°23'0 0.0
2017-Oct-15 23:28N 46°12' W 123°23'0 0.0
2017-Oct-15 22:55N 46°12' W 123°23'0 0.0
2017-Oct-15 22:25N 46°12' W 123°23'0 0.0
2017-Oct-15 21:58N 46°12' W 123°23'0 0.0
2017-Oct-15 21:28N 46°12' W 123°23'0 0.0
2017-Oct-15 20:59N 46°12' W 123°23'0 0.0
2017-Oct-15 20:29N 46°12' W 123°23'0 0.0
2017-Oct-15 19:56N 46°12' W 123°23'0 0.0
2017-Oct-15 19:23N 46°12' W 123°23'0 0.0
2017-Oct-15 18:59N 46°12' W 123°23'0 0.0
2017-Oct-15 18:29N 46°12' W 123°23'0 0.0
2017-Oct-15 17:59N 46°12' W 123°23'0 0.0
2017-Oct-15 17:28N 46°12' W 123°23'0 0.0
2017-Oct-15 17:00N 46°12' W 123°23'0 0.0
2017-Oct-15 16:30N 46°12' W 123°23'0 0.0
2017-Oct-15 15:59N 46°12' W 123°23'0 0.0
2017-Oct-15 15:28N 46°12' W 123°23'0 0.0
2017-Oct-15 14:46N 46°12' W 123°23'0 0.0
2017-Oct-15 13:52N 46°12' W 123°23'0 0.0
2017-Oct-15 13:30N 46°12' W 123°23'0 0.0
2017-Oct-15 12:58N 46°12' W 123°23'0 0.0
2017-Oct-15 12:28N 46°12' W 123°23'0 0.0
2017-Oct-15 11:58N 46°12' W 123°23'0 0.0
2017-Oct-15 11:25N 46°12' W 123°23'0 0.0
2017-Oct-15 10:58N 46°12' W 123°23'0 0.0
2017-Oct-15 10:27N 46°12' W 123°23'0 0.0
2017-Oct-15 10:00N 46°12' W 123°23'0 0.0
2017-Oct-15 09:24N 46°12' W 123°23'0 0.0
2017-Oct-15 08:55N 46°12' W 123°23'0 0.0
2017-Oct-15 08:30N 46°12' W 123°23'0 0.0
2017-Oct-15 08:00N 46°12' W 123°23'0 0.0
2017-Oct-15 07:30N 46°12' W 123°23'0 0.0
2017-Oct-15 06:55N 46°12' W 123°23'0 0.0
2017-Oct-15 06:27N 46°12' W 123°23'0 0.0
2017-Oct-15 05:57N 46°12' W 123°23'0 0.0
2017-Oct-15 05:28N 46°12' W 123°23'2 3.8
2017-Oct-15 05:00N 46°12' W 123°26'510.7
2017-Oct-15 04:31N 46°09' W 123°20'713.0
2017-Oct-15 04:00N 46°11' W 123°11'713.0
2017-Oct-15 03:30N 46°09' W 123°02'3 6.4
2017-Oct-15 03:01N 46°07' W 122°58'1 1.3
2017-Oct-15 02:30N 46°07' W 122°59'6 7.0
2017-Oct-15 01:40N 46°11' W 123°06'2 7.2
2017-Oct-15 01:20N 46°11' W 123°09'2 7.3
2017-Oct-15 01:00N 46°10' W 123°13'3 7.0
2017-Oct-15 00:31N 46°09' W 123°17'4 7.4
2017-Oct-15 00:00N 46°09' W 123°22'3 7.0
2017-Oct-14 23:30N 46°11' W 123°26'4 7.1
2017-Oct-14 22:53N 46°16' W 123°27'3 7.0
2017-Oct-14 22:30N 46°16' W 123°31'4 7.5
2017-Oct-14 22:01N 46°15' W 123°36'4 7.3
2017-Oct-14 21:30N 46°15' W 123°42'4 7.5
2017-Oct-14 21:01N 46°13' W 123°46'4 7.0
2017-Oct-14 20:30N 46°12' W 123°51'3 6.4
2017-Oct-14 20:01N 46°12' W 123°56'3 6.9
2017-Oct-14 19:31N 46°14' W 123°59'2 4.8
2017-Oct-14 19:00N 46°15' W 124°02'3 6.6
2017-Oct-14 18:31N 46°14' W 124°07'4 7.0
2017-Oct-14 18:00N 46°11' W 124°10'4 8.5
2017-Oct-14 17:30N 46°07' W 124°10'4 8.4
2017-Oct-14 17:00N 46°03' W 124°09'4 8.5
2017-Oct-14 16:31N 45°59' W 124°08'4 8.5
2017-Oct-14 16:01N 45°54' W 124°08'714.1
2017-Oct-14 15:30N 45°47' W 124°06'1 2.9
2017-Oct-14 15:00N 45°46' W 124°05'4 8.6
2017-Oct-14 14:31N 45°42' W 124°04'4 8.5
2017-Oct-14 14:00N 45°37' W 124°03'4 8.7
2017-Oct-14 13:30N 45°33' W 124°04'4 8.7
2017-Oct-14 13:00N 45°29' W 124°05'4 8.8
2017-Oct-14 12:30N 45°24' W 124°05'4 8.5
2017-Oct-14 12:01N 45°20' W 124°05'5 8.7
2017-Oct-14 11:29N 45°16' W 124°06'4 0.1
2017-Oct-12 16:44N 45°20' W 124°06'1 6.6
2017-Oct-12 16:30N 45°21' W 124°06'3 6.4
2017-Oct-12 16:00N 45°24' W 124°05'3 6.5
2017-Oct-12 15:30N 45°28' W 124°05'3 6.6
2017-Oct-12 15:00N 45°31' W 124°05'3 6.7
2017-Oct-12 14:31N 45°34' W 124°05'4 6.6
2017-Oct-12 13:52N 45°38' W 124°05'2 6.3
2017-Oct-12 13:30N 45°41' W 124°05'3 5.9
2017-Oct-12 12:55N 45°44' W 124°06'2 6.0
2017-Oct-12 12:31N 45°47' W 124°06'4 6.0
2017-Oct-12 11:53N 45°50' W 124°07'2 5.8
2017-Oct-12 11:31N 45°52' W 124°07'3 5.8
2017-Oct-12 10:57N 45°56' W 124°08'3 5.7
2017-Oct-12 10:31N 45°58' W 124°08'4 5.4
2017-Oct-12 09:51N 46°02' W 124°09'2 5.5
2017-Oct-12 09:30N 46°04' W 124°09'3 5.6
2017-Oct-12 08:56N 46°07' W 124°10'2 5.8
2017-Oct-12 08:30N 46°09' W 124°10'5 5.8
2017-Oct-12 07:44N 46°13' W 124°08'1 6.0
2017-Oct-12 07:30N 46°14' W 124°06'3 6.2
2017-Oct-12 07:00N 46°16' W 124°02'4 8.9
2017-Oct-12 06:30N 46°13' W 123°57'510.1
2017-Oct-12 06:01N 46°12' W 123°50'5 9.2
2017-Oct-12 05:26N 46°14' W 123°43'4 8.7
2017-Oct-12 05:01N 46°16' W 123°38'510.3
2017-Oct-12 04:30N 46°16' W 123°31'5 9.0
2017-Oct-12 04:00N 46°13' W 123°26'5 9.5
2017-Oct-12 03:31N 46°09' W 123°23'5 9.7
2017-Oct-12 03:01N 46°09' W 123°16'5 9.3
2017-Oct-12 02:31N 46°11' W 123°10'5 9.2
2017-Oct-12 02:01N 46°10' W 123°04'5 9.8
2017-Oct-12 01:30N 46°07' W 122°58'2 4.5
2017-Oct-12 01:00N 46°05' W 122°56'714.4
2017-Oct-12 00:31N 46°10' W 123°04'4 5.5
2017-Oct-11 23:50N 46°11' W 123°09'412.3
2017-Oct-11 23:31N 46°10' W 123°14'612.1
2017-Oct-11 23:01N 46°09' W 123°23'2 2.6
2017-Oct-11 22:19N 46°10' W 123°25'2 6.2
2017-Oct-11 21:58N 46°12' W 123°26'3 7.4
2017-Oct-11 21:30N 46°15' W 123°27'4 7.1
2017-Oct-11 21:01N 46°16' W 123°32'4 7.9
2017-Oct-11 20:31N 46°16' W 123°38'4 7.8
2017-Oct-11 20:01N 46°14' W 123°43'4 7.7
2017-Oct-11 19:31N 46°12' W 123°48'4 7.3
2017-Oct-11 19:00N 46°11' W 123°53'3 6.3
2017-Oct-11 18:31N 46°13' W 123°57'3 6.4
2017-Oct-11 18:01N 46°15' W 124°01'2 3.9
2017-Oct-11 17:30N 46°15' W 124°03'2 4.9
2017-Oct-11 17:01N 46°14' W 124°07'41 1.1
2017-Oct-10 03:40N 46°55' W 124°08'1 7.0
2017-Oct-10 03:30N 46°55' W 124°09'4 7.2
2017-Oct-10 02:56N 46°53' W 124°14'4 8.4
2017-Oct-10 02:30N 46°50' W 124°18'4 8.2
2017-Oct-10 02:00N 46°46' W 124°18'7 8.6
2017-Oct-10 01:11N 46°39' W 124°17'1 8.5
2017-Oct-10 01:00N 46°37' W 124°17'4 8.4
2017-Oct-10 00:31N 46°33' W 124°16'4 8.5
2017-Oct-10 00:01N 46°29' W 124°15'4 8.6
2017-Oct-09 23:31N 46°25' W 124°15'  

Dump ship's entire track history